createdAt,value
2023-06-02T00:00:14.366Z,952.32
2023-06-02T00:00:24.348Z,952.33
2023-06-02T00:00:34.348Z,952.32
2023-06-02T00:00:44.358Z,952.29
2023-06-02T00:00:54.355Z,952.30
2023-06-02T00:01:04.365Z,952.32
2023-06-02T00:01:24.352Z,952.28
2023-06-02T00:01:34.736Z,952.31
2023-06-02T00:01:44.365Z,952.29
2023-06-02T00:01:54.371Z,952.30
2023-06-02T00:02:04.423Z,952.29
2023-06-02T00:02:14.375Z,952.28
2023-06-02T00:02:24.445Z,952.29
2023-06-02T00:02:34.450Z,952.28
2023-06-02T00:02:44.400Z,952.26
2023-06-02T00:02:54.411Z,952.28
2023-06-02T00:03:04.392Z,952.27
2023-06-02T00:03:14.427Z,952.26
2023-06-02T00:03:34.367Z,952.28
2023-06-02T00:03:44.360Z,952.29
2023-06-02T00:03:54.364Z,952.29
2023-06-02T00:04:04.507Z,952.29
2023-06-02T00:04:14.375Z,952.30
2023-06-02T00:04:24.367Z,952.29
2023-06-02T00:04:34.369Z,952.30
2023-06-02T00:04:44.369Z,952.28
2023-06-02T00:04:54.370Z,952.28
2023-06-02T00:05:04.377Z,952.30
2023-06-02T00:05:24.424Z,952.29
2023-06-02T00:05:34.368Z,952.32
2023-06-02T00:05:44.423Z,952.30
2023-06-02T00:05:54.495Z,952.29
2023-06-02T00:06:04.662Z,952.33
2023-06-02T00:06:14.375Z,952.35
2023-06-02T00:06:24.373Z,952.31
2023-06-02T00:06:35.012Z,952.31
2023-06-02T00:06:44.378Z,952.32
2023-06-02T00:06:54.379Z,952.34
2023-06-02T00:07:04.548Z,952.29
2023-06-02T00:07:14.384Z,952.30
2023-06-02T00:07:24.380Z,952.30
2023-06-02T00:07:34.378Z,952.31
2023-06-02T00:07:44.385Z,952.32
2023-06-02T00:07:54.395Z,952.30
2023-06-02T00:08:04.395Z,952.28
2023-06-02T00:08:14.384Z,952.29
2023-06-02T00:08:24.383Z,952.30
2023-06-02T00:08:34.606Z,952.33
2023-06-02T00:08:44.436Z,952.29
2023-06-02T00:09:04.436Z,952.27
2023-06-02T00:09:14.397Z,952.27
2023-06-02T00:09:24.386Z,952.26
2023-06-02T00:09:34.386Z,952.30
2023-06-02T00:09:44.394Z,952.27
2023-06-02T00:09:54.389Z,952.26
2023-06-02T00:10:04.403Z,952.29
2023-06-02T00:10:14.398Z,952.31
2023-06-02T00:10:24.400Z,952.29
2023-06-02T00:10:34.394Z,952.27
2023-06-02T00:10:44.397Z,952.29
2023-06-02T00:10:54.395Z,952.29
2023-06-02T00:11:04.409Z,952.28
2023-06-02T00:11:14.396Z,952.27
2023-06-02T00:11:24.409Z,952.30
2023-06-02T00:11:34.395Z,952.28
2023-06-02T00:11:44.398Z,952.31
2023-06-02T00:11:54.408Z,952.29
2023-06-02T00:12:04.405Z,952.30
2023-06-02T00:12:14.399Z,952.31
2023-06-02T00:12:24.475Z,952.28
2023-06-02T00:12:34.401Z,952.31
2023-06-02T00:12:44.407Z,952.30
2023-06-02T00:12:54.403Z,952.31
2023-06-02T00:13:04.403Z,952.27
2023-06-02T00:13:14.417Z,952.28
2023-06-02T00:13:24.408Z,952.25
2023-06-02T00:13:34.403Z,952.30
2023-06-02T00:13:44.408Z,952.30
2023-06-02T00:14:04.421Z,952.31
2023-06-02T00:14:14.409Z,952.31
2023-06-02T00:14:24.415Z,952.34
2023-06-02T00:14:34.415Z,952.34
2023-06-02T00:14:44.413Z,952.32
2023-06-02T00:14:54.441Z,952.35
2023-06-02T00:15:14.414Z,952.30
2023-06-02T00:15:24.416Z,952.31
2023-06-02T00:15:34.503Z,952.30
2023-06-02T00:15:44.564Z,952.30
2023-06-02T00:15:54.476Z,952.30
2023-06-02T00:16:04.835Z,952.30
2023-06-02T00:16:24.446Z,952.34
2023-06-02T00:16:34.483Z,952.30
2023-06-02T00:16:44.523Z,952.32
2023-06-02T00:16:54.418Z,952.35
2023-06-02T00:17:04.412Z,952.34
2023-06-02T00:17:14.451Z,952.34
2023-06-02T00:17:24.418Z,952.34
2023-06-02T00:17:44.433Z,952.32
2023-06-02T00:17:54.475Z,952.34
2023-06-02T00:18:04.465Z,952.34
2023-06-02T00:18:14.419Z,952.33
2023-06-02T00:18:24.418Z,952.38
2023-06-02T00:18:34.417Z,952.36
2023-06-02T00:18:44.484Z,952.33
2023-06-02T00:18:54.423Z,952.35
2023-06-02T00:19:04.456Z,952.32
2023-06-02T00:19:14.439Z,952.35
2023-06-02T00:19:24.428Z,952.35
2023-06-02T00:19:34.425Z,952.32
2023-06-02T00:19:44.428Z,952.38
2023-06-02T00:19:54.428Z,952.33
2023-06-02T00:20:14.442Z,952.41
2023-06-02T00:20:24.437Z,952.40
2023-06-02T00:20:34.432Z,952.40
2023-06-02T00:20:44.429Z,952.33
2023-06-02T00:20:54.434Z,952.34
2023-06-02T00:21:04.430Z,952.34
2023-06-02T00:21:14.430Z,952.38
2023-06-02T00:21:24.466Z,952.37
2023-06-02T00:21:34.531Z,952.34
2023-06-02T00:21:44.466Z,952.33
2023-06-02T00:21:54.469Z,952.39
2023-06-02T00:22:04.617Z,952.40
2023-06-02T00:22:14.438Z,952.39
2023-06-02T00:22:24.437Z,952.40
2023-06-02T00:22:34.448Z,952.42
2023-06-02T00:22:44.437Z,952.39
2023-06-02T00:22:54.477Z,952.39
2023-06-02T00:23:04.443Z,952.37
2023-06-02T00:23:14.439Z,952.40
2023-06-02T00:23:24.447Z,952.40
2023-06-02T00:23:34.441Z,952.36
2023-06-02T00:23:44.452Z,952.37
2023-06-02T00:24:04.449Z,952.38
2023-06-02T00:24:14.452Z,952.36
2023-06-02T00:24:24.511Z,952.36
2023-06-02T00:24:34.458Z,952.36
2023-06-02T00:24:44.467Z,952.37
2023-06-02T00:24:54.462Z,952.36
2023-06-02T00:25:04.461Z,952.37
2023-06-02T00:25:24.452Z,952.35
2023-06-02T00:25:34.454Z,952.29
2023-06-02T00:25:44.465Z,952.37
2023-06-02T00:25:54.447Z,952.32
2023-06-02T00:26:04.600Z,952.34
2023-06-02T00:26:14.456Z,952.32
2023-06-02T00:26:24.454Z,952.33
2023-06-02T00:26:34.471Z,952.36
2023-06-02T00:26:54.452Z,952.34
2023-06-02T00:27:04.453Z,952.33
2023-06-02T00:27:14.455Z,952.34
2023-06-02T00:27:24.453Z,952.33
2023-06-02T00:27:34.475Z,952.33
2023-06-02T00:27:44.458Z,952.34
2023-06-02T00:27:54.453Z,952.33
2023-06-02T00:28:04.454Z,952.34
2023-06-02T00:28:14.454Z,952.35
2023-06-02T00:28:24.490Z,952.34
2023-06-02T00:28:44.460Z,952.33
2023-06-02T00:28:54.485Z,952.35
2023-06-02T00:29:04.466Z,952.37
2023-06-02T00:29:14.506Z,952.31
2023-06-02T00:29:24.464Z,952.37
2023-06-02T00:29:34.468Z,952.39
2023-06-02T00:29:44.460Z,952.34
2023-06-02T00:29:54.471Z,952.32
2023-06-02T00:30:04.463Z,952.35
2023-06-02T00:30:24.473Z,952.33
2023-06-02T00:30:34.462Z,952.33
2023-06-02T00:30:44.470Z,952.33
2023-06-02T00:30:54.469Z,952.32
2023-06-02T00:31:04.491Z,952.32
2023-06-02T00:31:14.499Z,952.31
2023-06-02T00:31:24.475Z,952.31
2023-06-02T00:31:34.488Z,952.30
2023-06-02T00:31:44.555Z,952.32
2023-06-02T00:31:54.543Z,952.33
2023-06-02T00:32:04.480Z,952.31
2023-06-02T00:32:14.475Z,952.31
2023-06-02T00:32:24.478Z,952.31
2023-06-02T00:32:44.540Z,952.29
2023-06-02T00:32:54.492Z,952.29
2023-06-02T00:33:04.514Z,952.27
2023-06-02T00:33:14.497Z,952.28
2023-06-02T00:33:24.510Z,952.27
2023-06-02T00:33:34.489Z,952.28
2023-06-02T00:33:44.481Z,952.28
2023-06-02T00:33:54.488Z,952.27
2023-06-02T00:34:04.480Z,952.26
2023-06-02T00:34:14.494Z,952.28
2023-06-02T00:34:24.483Z,952.30
2023-06-02T00:34:34.497Z,952.29
2023-06-02T00:34:44.488Z,952.25
2023-06-02T00:34:54.488Z,952.28
2023-06-02T00:35:04.504Z,952.30
2023-06-02T00:35:24.498Z,952.29
2023-06-02T00:35:34.500Z,952.30
2023-06-02T00:35:44.487Z,952.30
2023-06-02T00:35:54.495Z,952.32
2023-06-02T00:36:04.522Z,952.32
2023-06-02T00:36:14.496Z,952.30
2023-06-02T00:36:34.541Z,952.31
2023-06-02T00:36:44.529Z,952.30
2023-06-02T00:36:54.500Z,952.32
2023-06-02T00:37:04.518Z,952.33
2023-06-02T00:37:14.502Z,952.33
2023-06-02T00:37:24.495Z,952.32
2023-06-02T00:37:34.513Z,952.32
2023-06-02T00:37:44.498Z,952.30
2023-06-02T00:37:54.502Z,952.35
2023-06-02T00:38:04.510Z,952.33
2023-06-02T00:38:14.501Z,952.32
2023-06-02T00:38:24.555Z,952.33
2023-06-02T00:38:34.500Z,952.34
2023-06-02T00:38:44.500Z,952.33
2023-06-02T00:38:54.504Z,952.34
2023-06-02T00:39:04.528Z,952.36
2023-06-02T00:39:16.376Z,952.38
2023-06-02T00:39:24.566Z,952.39
2023-06-02T00:39:34.520Z,952.34
2023-06-02T00:39:44.512Z,952.35
2023-06-02T00:39:54.514Z,952.36
2023-06-02T00:40:14.509Z,952.36
2023-06-02T00:40:24.507Z,952.36
2023-06-02T00:40:34.519Z,952.34
2023-06-02T00:40:44.509Z,952.34
2023-06-02T00:40:54.512Z,952.34
2023-06-02T00:41:04.538Z,952.34
2023-06-02T00:41:14.519Z,952.37
2023-06-02T00:41:24.510Z,952.35
2023-06-02T00:41:34.515Z,952.34
2023-06-02T00:41:44.524Z,952.31
2023-06-02T00:41:54.518Z,952.26
2023-06-02T00:42:14.539Z,952.33
2023-06-02T00:42:24.516Z,952.32
2023-06-02T00:42:34.526Z,952.33
2023-06-02T00:42:44.514Z,952.31
2023-06-02T00:42:54.548Z,952.30
2023-06-02T00:43:04.538Z,952.33
2023-06-02T00:43:24.525Z,952.29
2023-06-02T00:43:34.526Z,952.32
2023-06-02T00:43:44.523Z,952.31
2023-06-02T00:43:54.524Z,952.27
2023-06-02T00:44:04.525Z,952.24
2023-06-02T00:44:14.542Z,952.30
2023-06-02T00:44:24.526Z,952.30
2023-06-02T00:44:34.526Z,952.26
2023-06-02T00:44:44.528Z,952.28
2023-06-02T00:44:54.529Z,952.27
2023-06-02T00:45:04.595Z,952.29
2023-06-02T00:45:24.529Z,952.29
2023-06-02T00:45:34.535Z,952.27
2023-06-02T00:45:44.535Z,952.26
2023-06-02T00:45:54.536Z,952.27
2023-06-02T00:46:04.540Z,952.26
2023-06-02T00:46:14.540Z,952.28
2023-06-02T00:46:24.557Z,952.26
2023-06-02T00:46:34.583Z,952.26
2023-06-02T00:46:44.565Z,952.26
2023-06-02T00:47:04.606Z,952.25
2023-06-02T00:47:14.535Z,952.25
2023-06-02T00:47:24.583Z,952.25
2023-06-02T00:47:34.589Z,952.23
2023-06-02T00:47:44.577Z,952.25
2023-06-02T00:47:54.604Z,952.26
2023-06-02T00:48:04.649Z,952.26
2023-06-02T00:48:14.556Z,952.26
2023-06-02T00:48:24.643Z,952.27
2023-06-02T00:48:34.544Z,952.25
2023-06-02T00:48:44.577Z,952.24
2023-06-02T00:48:54.547Z,952.26
2023-06-02T00:49:04.546Z,952.26
2023-06-02T00:49:14.562Z,952.26
2023-06-02T00:49:24.547Z,952.28
2023-06-02T00:49:34.545Z,952.27
2023-06-02T00:49:44.549Z,952.28
2023-06-02T00:49:54.550Z,952.28
2023-06-02T00:50:04.552Z,952.30
2023-06-02T00:50:24.548Z,952.27
2023-06-02T00:50:34.552Z,952.32
2023-06-02T00:50:44.556Z,952.30
2023-06-02T00:50:54.566Z,952.30
2023-06-02T00:51:04.573Z,952.37
2023-06-02T00:51:14.551Z,952.33
2023-06-02T00:51:24.592Z,952.35
2023-06-02T00:51:34.560Z,952.32
2023-06-02T00:51:44.562Z,952.30
2023-06-02T00:51:54.562Z,952.32
2023-06-02T00:52:14.558Z,952.33
2023-06-02T00:52:24.557Z,952.33
2023-06-02T00:52:34.563Z,952.32
2023-06-02T00:52:44.567Z,952.35
2023-06-02T00:52:54.558Z,952.36
2023-06-02T00:53:04.563Z,952.35
2023-06-02T00:53:14.559Z,952.35
2023-06-02T00:53:34.562Z,952.35
2023-06-02T00:53:44.580Z,952.36
2023-06-02T00:53:55.717Z,952.35
2023-06-02T00:54:04.561Z,952.41
2023-06-02T00:54:14.604Z,952.36
2023-06-02T00:54:24.568Z,952.39
2023-06-02T00:54:34.575Z,952.34
2023-06-02T00:54:44.567Z,952.34
2023-06-02T00:54:54.565Z,952.34
2023-06-02T00:55:04.569Z,952.39
2023-06-02T00:55:24.568Z,952.36
2023-06-02T00:55:34.577Z,952.33
2023-06-02T00:55:44.572Z,952.35
2023-06-02T00:55:54.571Z,952.35
2023-06-02T00:56:04.716Z,952.39
2023-06-02T00:56:14.605Z,952.39
2023-06-02T00:56:24.571Z,952.39
2023-06-02T00:56:34.569Z,952.37
2023-06-02T00:56:54.573Z,952.36
2023-06-02T00:57:04.609Z,952.36
2023-06-02T00:57:14.593Z,952.41
2023-06-02T00:57:24.572Z,952.43
2023-06-02T00:57:34.575Z,952.41
2023-06-02T00:57:44.579Z,952.39
2023-06-02T00:57:54.590Z,952.39
2023-06-02T00:58:04.686Z,952.35
2023-06-02T00:58:24.581Z,952.38
2023-06-02T00:58:34.575Z,952.40
2023-06-02T00:58:44.599Z,952.39
2023-06-02T00:58:54.582Z,952.40
2023-06-02T00:59:04.591Z,952.39
2023-06-02T00:59:14.594Z,952.39
2023-06-02T00:59:24.660Z,952.39
2023-06-02T00:59:34.600Z,952.41
2023-06-02T00:59:54.586Z,952.39
2023-06-02T01:00:04.588Z,952.38
2023-06-02T01:00:14.589Z,952.39
2023-06-02T01:00:24.583Z,952.40
2023-06-02T01:00:34.690Z,952.41
2023-06-02T01:00:44.653Z,952.40
2023-06-02T01:00:54.617Z,952.41
2023-06-02T01:01:04.626Z,952.43
2023-06-02T01:01:14.622Z,952.44
2023-06-02T01:01:24.802Z,952.45
2023-06-02T01:01:34.615Z,952.42
2023-06-02T01:01:44.593Z,952.45
2023-06-02T01:01:54.594Z,952.45
2023-06-02T01:02:04.629Z,952.46
2023-06-02T01:02:14.637Z,952.41
2023-06-02T01:02:24.613Z,952.45
2023-06-02T01:02:34.638Z,952.45
2023-06-02T01:02:44.657Z,952.46
2023-06-02T01:02:54.691Z,952.47
2023-06-02T01:03:14.644Z,952.50
2023-06-02T01:03:24.624Z,952.49
2023-06-02T01:03:34.630Z,952.44
2023-06-02T01:03:44.702Z,952.55
2023-06-02T01:03:54.740Z,952.50
2023-06-02T01:04:04.711Z,952.58
2023-06-02T01:04:14.631Z,952.52
2023-06-02T01:04:34.610Z,952.53
2023-06-02T01:04:44.614Z,952.48
2023-06-02T01:04:54.609Z,952.46
2023-06-02T01:05:04.621Z,952.48
2023-06-02T01:05:14.610Z,952.45
2023-06-02T01:05:24.607Z,952.44
2023-06-02T01:05:34.620Z,952.43
2023-06-02T01:05:44.634Z,952.46
2023-06-02T01:05:54.611Z,952.47
2023-06-02T01:06:04.904Z,952.46
2023-06-02T01:06:14.614Z,952.47
2023-06-02T01:06:24.728Z,952.46
2023-06-02T01:06:34.624Z,952.44
2023-06-02T01:06:44.623Z,952.44
2023-06-02T01:07:04.612Z,952.44
2023-06-02T01:07:14.615Z,952.45
2023-06-02T01:07:24.632Z,952.46
2023-06-02T01:07:34.628Z,952.46
2023-06-02T01:07:44.640Z,952.46
2023-06-02T01:07:54.620Z,952.47
2023-06-02T01:08:04.619Z,952.49
2023-06-02T01:08:14.623Z,952.48
2023-06-02T01:08:24.626Z,952.36
2023-06-02T01:08:34.622Z,952.47
2023-06-02T01:08:44.643Z,952.46
2023-06-02T01:08:54.630Z,952.44
2023-06-02T01:09:04.629Z,952.46
2023-06-02T01:09:14.643Z,952.48
2023-06-02T01:09:24.628Z,952.48
2023-06-02T01:09:34.633Z,952.46
2023-06-02T01:09:54.645Z,952.56
2023-06-02T01:10:04.636Z,952.44
2023-06-02T01:10:14.628Z,952.44
2023-06-02T01:10:24.630Z,952.44
2023-06-02T01:10:34.636Z,952.46
2023-06-02T01:10:44.641Z,952.45
2023-06-02T01:11:04.633Z,952.47
2023-06-02T01:11:14.639Z,952.45
2023-06-02T01:11:24.633Z,952.46
2023-06-02T01:11:34.636Z,952.45
2023-06-02T01:11:44.636Z,952.44
2023-06-02T01:11:54.645Z,952.44
2023-06-02T01:12:04.637Z,952.44
2023-06-02T01:12:14.637Z,952.44
2023-06-02T01:12:24.644Z,952.44
2023-06-02T01:12:34.640Z,952.45
2023-06-02T01:12:44.641Z,952.43
2023-06-02T01:13:04.642Z,952.40
2023-06-02T01:13:14.647Z,952.42
2023-06-02T01:13:24.636Z,952.41
2023-06-02T01:13:34.642Z,952.40
2023-06-02T01:13:44.645Z,952.40
2023-06-02T01:13:54.640Z,952.40
2023-06-02T01:14:04.658Z,952.40
2023-06-02T01:14:14.689Z,952.37
2023-06-02T01:14:34.648Z,952.38
2023-06-02T01:14:44.647Z,952.39
2023-06-02T01:14:54.644Z,952.39
2023-06-02T01:15:04.650Z,952.42
2023-06-02T01:15:14.686Z,952.40
2023-06-02T01:15:24.654Z,952.37
2023-06-02T01:15:44.650Z,952.37
2023-06-02T01:15:54.662Z,952.37
2023-06-02T01:16:04.988Z,952.36
2023-06-02T01:16:14.716Z,952.37
2023-06-02T01:16:24.674Z,952.34
2023-06-02T01:16:34.686Z,952.36
2023-06-02T01:16:44.679Z,952.36
2023-06-02T01:16:54.699Z,952.36
2023-06-02T01:17:04.658Z,952.36
2023-06-02T01:17:24.678Z,952.36
2023-06-02T01:17:34.757Z,952.36
2023-06-02T01:17:44.686Z,952.36
2023-06-02T01:17:54.730Z,952.35
2023-06-02T01:18:04.751Z,952.35
2023-06-02T01:18:14.666Z,952.35
2023-06-02T01:18:34.683Z,952.36
2023-06-02T01:18:44.665Z,952.37
2023-06-02T01:18:56.060Z,952.37
2023-06-02T01:19:04.679Z,952.36
2023-06-02T01:19:14.700Z,952.33
2023-06-02T01:19:24.678Z,952.39
2023-06-02T01:19:34.676Z,952.36
2023-06-02T01:19:44.701Z,952.33
2023-06-02T01:19:54.674Z,952.33
2023-06-02T01:20:04.681Z,952.35
2023-06-02T01:20:24.678Z,952.36
2023-06-02T01:20:34.677Z,952.32
2023-06-02T01:20:44.687Z,952.33
2023-06-02T01:20:54.700Z,952.33
2023-06-02T01:21:04.681Z,952.31
2023-06-02T01:21:14.678Z,952.31
2023-06-02T01:21:34.714Z,952.29
2023-06-02T01:21:44.704Z,952.29
2023-06-02T01:21:54.762Z,952.31
2023-06-02T01:22:04.871Z,952.29
2023-06-02T01:22:14.683Z,952.29
2023-06-02T01:22:24.686Z,952.27
2023-06-02T01:22:34.688Z,952.29
2023-06-02T01:22:44.690Z,952.29
2023-06-02T01:22:54.725Z,952.28
2023-06-02T01:23:04.687Z,952.28
2023-06-02T01:23:14.732Z,952.27
2023-06-02T01:23:24.756Z,952.25
2023-06-02T01:23:34.695Z,952.30
2023-06-02T01:23:44.693Z,952.28
2023-06-02T01:23:54.689Z,952.29
2023-06-02T01:24:04.722Z,952.29
2023-06-02T01:24:24.697Z,952.28
2023-06-02T01:24:34.696Z,952.30
2023-06-02T01:24:44.694Z,952.33
2023-06-02T01:24:54.699Z,952.27
2023-06-02T01:25:04.721Z,952.29
2023-06-02T01:25:14.698Z,952.31
2023-06-02T01:25:24.714Z,952.29
2023-06-02T01:25:34.694Z,952.25
2023-06-02T01:25:44.703Z,952.33
2023-06-02T01:25:54.756Z,952.33
2023-06-02T01:26:04.723Z,952.29
2023-06-02T01:26:15.015Z,952.29
2023-06-02T01:26:24.699Z,952.26
2023-06-02T01:26:34.703Z,952.27
2023-06-02T01:26:44.709Z,952.25
2023-06-02T01:26:54.709Z,952.27
2023-06-02T01:27:04.734Z,952.27
2023-06-02T01:27:14.704Z,952.27
2023-06-02T01:27:24.704Z,952.22
2023-06-02T01:27:34.721Z,952.23
2023-06-02T01:27:44.712Z,952.23
2023-06-02T01:27:54.724Z,952.20
2023-06-02T01:28:14.715Z,952.22
2023-06-02T01:28:24.709Z,952.22
2023-06-02T01:28:34.716Z,952.22
2023-06-02T01:28:44.729Z,952.25
2023-06-02T01:28:54.716Z,952.21
2023-06-02T01:29:04.715Z,952.22
2023-06-02T01:29:14.721Z,952.24
2023-06-02T01:29:24.711Z,952.26
2023-06-02T01:29:34.724Z,952.20
2023-06-02T01:29:54.716Z,952.21
2023-06-02T01:30:04.728Z,952.20
2023-06-02T01:30:14.724Z,952.25
2023-06-02T01:30:24.717Z,952.23
2023-06-02T01:30:34.722Z,952.22
2023-06-02T01:30:44.740Z,952.23
2023-06-02T01:30:54.725Z,952.25
2023-06-02T01:31:04.720Z,952.23
2023-06-02T01:31:14.724Z,952.26
2023-06-02T01:31:24.736Z,952.24
2023-06-02T01:31:34.748Z,952.24
2023-06-02T01:31:44.727Z,952.22
2023-06-02T01:31:54.779Z,952.25
2023-06-02T01:32:04.899Z,952.25
2023-06-02T01:32:14.734Z,952.23
2023-06-02T01:32:34.728Z,952.25
2023-06-02T01:32:44.765Z,952.25
2023-06-02T01:32:54.826Z,952.25
2023-06-02T01:33:04.803Z,952.23
2023-06-02T01:33:14.730Z,952.26
2023-06-02T01:33:24.737Z,952.28
2023-06-02T01:33:34.733Z,952.26
2023-06-02T01:33:44.734Z,952.24
2023-06-02T01:33:54.746Z,952.26
2023-06-02T01:34:04.739Z,952.28
2023-06-02T01:34:14.771Z,952.28
2023-06-02T01:34:24.740Z,952.29
2023-06-02T01:34:34.734Z,952.28
2023-06-02T01:34:44.735Z,952.27
2023-06-02T01:34:54.750Z,952.28
2023-06-02T01:35:04.740Z,952.26
2023-06-02T01:35:24.733Z,952.28
2023-06-02T01:35:34.761Z,952.28
2023-06-02T01:35:44.753Z,952.28
2023-06-02T01:35:54.737Z,952.30
2023-06-02T01:36:04.931Z,952.32
2023-06-02T01:36:14.738Z,952.30
2023-06-02T01:36:24.751Z,952.29
2023-06-02T01:36:44.745Z,952.29
2023-06-02T01:36:54.738Z,952.25
2023-06-02T01:37:04.764Z,952.29
2023-06-02T01:37:14.742Z,952.31
2023-06-02T01:37:24.740Z,952.31
2023-06-02T01:37:34.766Z,952.28
2023-06-02T01:37:44.752Z,952.30
2023-06-02T01:37:54.759Z,952.34
2023-06-02T01:38:14.744Z,952.31
2023-06-02T01:38:24.757Z,952.32
2023-06-02T01:38:34.748Z,952.31
2023-06-02T01:38:44.746Z,952.31
2023-06-02T01:38:54.758Z,952.32
2023-06-02T01:39:04.757Z,952.33
2023-06-02T01:39:14.757Z,952.32
2023-06-02T01:39:24.756Z,952.35
2023-06-02T01:39:34.759Z,952.36
2023-06-02T01:39:44.758Z,952.37
2023-06-02T01:39:54.756Z,952.33
2023-06-02T01:40:04.810Z,952.33
2023-06-02T01:40:14.754Z,952.34
2023-06-02T01:40:34.753Z,952.34
2023-06-02T01:40:44.756Z,952.34
2023-06-02T01:40:54.757Z,952.31
2023-06-02T01:41:04.761Z,952.35
2023-06-02T01:41:14.759Z,952.34
2023-06-02T01:41:24.757Z,952.36
2023-06-02T01:41:34.773Z,952.31
2023-06-02T01:41:44.770Z,952.28
2023-06-02T01:41:54.765Z,952.30
2023-06-02T01:42:04.766Z,952.32
2023-06-02T01:42:14.765Z,952.31
2023-06-02T01:42:24.770Z,952.31
2023-06-02T01:42:34.774Z,952.31
2023-06-02T01:42:44.767Z,952.29
2023-06-02T01:42:54.765Z,952.30
2023-06-02T01:43:04.772Z,952.28
2023-06-02T01:43:14.788Z,952.29
2023-06-02T01:43:34.767Z,952.29
2023-06-02T01:43:44.787Z,952.29
2023-06-02T01:43:54.766Z,952.30
2023-06-02T01:44:04.774Z,952.29
2023-06-02T01:44:14.778Z,952.30
2023-06-02T01:44:24.768Z,952.29
2023-06-02T01:44:34.772Z,952.29
2023-06-02T01:44:44.769Z,952.29
2023-06-02T01:44:54.780Z,952.28
2023-06-02T01:45:04.779Z,952.28
2023-06-02T01:45:14.791Z,952.29
2023-06-02T01:45:34.807Z,952.28
2023-06-02T01:45:44.784Z,952.29
2023-06-02T01:45:54.812Z,952.29
2023-06-02T01:46:05.154Z,952.28
2023-06-02T01:46:14.793Z,952.26
2023-06-02T01:46:24.882Z,952.35
2023-06-02T01:46:34.798Z,952.30
2023-06-02T01:46:44.793Z,952.30
2023-06-02T01:46:54.786Z,952.28
2023-06-02T01:47:04.780Z,952.28
2023-06-02T01:47:14.809Z,952.28
2023-06-02T01:47:24.804Z,952.31
2023-06-02T01:47:34.822Z,952.31
2023-06-02T01:47:44.820Z,952.30
2023-06-02T01:47:54.814Z,952.29
2023-06-02T01:48:14.798Z,952.32
2023-06-02T01:48:24.780Z,952.28
2023-06-02T01:48:34.805Z,952.28
2023-06-02T01:48:44.786Z,952.27
2023-06-02T01:48:54.807Z,952.26
2023-06-02T01:49:04.787Z,952.26
2023-06-02T01:49:14.789Z,952.25
2023-06-02T01:49:24.820Z,952.26
2023-06-02T01:49:34.789Z,952.26
2023-06-02T01:49:44.797Z,952.27
2023-06-02T01:49:54.791Z,952.25
2023-06-02T01:50:04.791Z,952.25
2023-06-02T01:50:14.794Z,952.25
2023-06-02T01:50:34.807Z,952.27
2023-06-02T01:50:44.806Z,952.23
2023-06-02T01:50:54.812Z,952.25
2023-06-02T01:51:04.798Z,952.27
2023-06-02T01:51:14.838Z,952.27
2023-06-02T01:51:24.782Z,952.26
2023-06-02T01:51:34.786Z,952.29
2023-06-02T01:51:44.813Z,952.23
2023-06-02T01:51:54.798Z,952.25
2023-06-02T01:52:04.801Z,952.23
2023-06-02T01:52:14.800Z,952.23
2023-06-02T01:52:24.805Z,952.24
2023-06-02T01:52:34.814Z,952.23
2023-06-02T01:52:54.803Z,952.20
2023-06-02T01:53:04.806Z,952.20
2023-06-02T01:53:14.805Z,952.22
2023-06-02T01:53:24.815Z,952.20
2023-06-02T01:53:34.805Z,952.22
2023-06-02T01:53:44.803Z,952.23
2023-06-02T01:53:54.808Z,952.24
2023-06-02T01:54:04.810Z,952.21
2023-06-02T01:54:14.805Z,952.17
2023-06-02T01:54:24.828Z,952.19
2023-06-02T01:54:34.807Z,952.19
2023-06-02T01:54:44.817Z,952.22
2023-06-02T01:54:54.825Z,952.20
2023-06-02T01:55:14.813Z,952.16
2023-06-02T01:55:24.818Z,952.17
2023-06-02T01:55:34.812Z,952.17
2023-06-02T01:55:44.817Z,952.17
2023-06-02T01:55:54.820Z,952.17
2023-06-02T01:56:05.054Z,952.17
2023-06-02T01:56:14.812Z,952.16
2023-06-02T01:56:24.821Z,952.14
2023-06-02T01:56:34.815Z,952.18
2023-06-02T01:56:44.817Z,952.17
2023-06-02T01:56:54.819Z,952.16
2023-06-02T01:57:04.830Z,952.22
2023-06-02T01:57:14.829Z,952.19
2023-06-02T01:57:24.816Z,952.22
2023-06-02T01:57:34.828Z,952.18
2023-06-02T01:57:44.839Z,952.22
2023-06-02T01:57:54.820Z,952.20
2023-06-02T01:58:04.826Z,952.19
2023-06-02T01:58:14.829Z,952.15
2023-06-02T01:58:24.835Z,952.18
2023-06-02T01:58:34.832Z,952.20
2023-06-02T01:58:44.835Z,952.17
2023-06-02T01:58:54.857Z,952.21
2023-06-02T01:59:04.830Z,952.21
2023-06-02T01:59:14.830Z,952.25
2023-06-02T01:59:24.831Z,952.24
2023-06-02T01:59:44.846Z,952.20
2023-06-02T01:59:54.836Z,952.22
2023-06-02T02:00:04.842Z,952.22
2023-06-02T02:00:14.838Z,952.22
2023-06-02T02:00:24.838Z,952.22
2023-06-02T02:00:34.848Z,952.23
2023-06-02T02:00:44.838Z,952.24
2023-06-02T02:00:54.858Z,952.22
2023-06-02T02:01:04.862Z,952.21
2023-06-02T02:01:14.852Z,952.15
2023-06-02T02:01:24.850Z,952.19
2023-06-02T02:01:34.940Z,952.22
2023-06-02T02:01:44.908Z,952.21
2023-06-02T02:01:54.902Z,952.22
2023-06-02T02:02:04.927Z,952.21
2023-06-02T02:02:14.857Z,952.22
2023-06-02T02:02:24.905Z,952.21
2023-06-02T02:02:34.911Z,952.22
2023-06-02T02:02:44.955Z,952.22
2023-06-02T02:03:04.867Z,952.21
2023-06-02T02:03:14.919Z,952.23
2023-06-02T02:03:24.973Z,952.26
2023-06-02T02:03:34.987Z,952.26
2023-06-02T02:03:44.997Z,952.21
2023-06-02T02:03:55.000Z,952.25
2023-06-02T02:04:04.847Z,952.27
2023-06-02T02:04:14.851Z,952.21
2023-06-02T02:04:24.861Z,952.27
2023-06-02T02:04:44.852Z,952.26
2023-06-02T02:04:54.873Z,952.23
2023-06-02T02:05:04.866Z,952.23
2023-06-02T02:05:14.859Z,952.26
2023-06-02T02:05:24.862Z,952.24
2023-06-02T02:05:34.865Z,952.23
2023-06-02T02:05:44.855Z,952.26
2023-06-02T02:06:05.084Z,952.23
2023-06-02T02:06:14.856Z,952.23
2023-06-02T02:06:24.871Z,952.24
2023-06-02T02:06:34.863Z,952.23
2023-06-02T02:06:44.860Z,952.24
2023-06-02T02:06:54.879Z,952.24
2023-06-02T02:07:04.872Z,952.24
2023-06-02T02:07:14.863Z,952.25
2023-06-02T02:07:24.867Z,952.23
2023-06-02T02:07:34.878Z,952.25
2023-06-02T02:07:44.868Z,952.23
2023-06-02T02:08:04.871Z,952.22
2023-06-02T02:08:14.865Z,952.24
2023-06-02T02:08:24.877Z,952.18
2023-06-02T02:08:34.872Z,952.21
2023-06-02T02:08:44.866Z,952.26
2023-06-02T02:08:54.877Z,952.22
2023-06-02T02:09:04.890Z,952.23
2023-06-02T02:09:14.873Z,952.22
2023-06-02T02:09:24.889Z,952.24
2023-06-02T02:09:34.877Z,952.25
2023-06-02T02:09:44.875Z,952.24
2023-06-02T02:09:54.873Z,952.24
2023-06-02T02:10:04.880Z,952.23
2023-06-02T02:10:14.902Z,952.25
2023-06-02T02:10:34.902Z,952.29
2023-06-02T02:10:44.883Z,952.27
2023-06-02T02:10:54.881Z,952.28
2023-06-02T02:11:04.879Z,952.26
2023-06-02T02:11:14.880Z,952.29
2023-06-02T02:11:24.880Z,952.23
2023-06-02T02:11:44.885Z,952.27
2023-06-02T02:11:54.899Z,952.30
2023-06-02T02:12:04.882Z,952.30
2023-06-02T02:12:14.886Z,952.27
2023-06-02T02:12:24.886Z,952.25
2023-06-02T02:12:34.898Z,952.24
2023-06-02T02:12:44.886Z,952.25
2023-06-02T02:13:04.905Z,952.24
2023-06-02T02:13:14.889Z,952.23
2023-06-02T02:13:24.902Z,952.23
2023-06-02T02:13:34.884Z,952.23
2023-06-02T02:13:44.891Z,952.23
2023-06-02T02:13:54.889Z,952.23
2023-06-02T02:14:04.901Z,952.23
2023-06-02T02:14:14.896Z,952.22
2023-06-02T02:14:24.903Z,952.23
2023-06-02T02:14:34.895Z,952.23
2023-06-02T02:14:44.932Z,952.24
2023-06-02T02:14:54.921Z,952.23
2023-06-02T02:15:04.892Z,952.23
2023-06-02T02:15:14.918Z,952.23
2023-06-02T02:15:34.897Z,952.22